createdAt,value
2022-10-31T00:04:02.235Z,17.89
2022-10-31T00:14:07.680Z,17.84
2022-10-31T00:24:15.307Z,17.73
2022-10-31T00:34:20.641Z,17.73
2022-10-31T00:44:28.090Z,17.68
2022-10-31T00:54:33.598Z,17.63
2022-10-31T01:04:41.519Z,17.64
2022-10-31T01:14:47.411Z,17.59
2022-10-31T01:24:55.096Z,17.59
2022-10-31T01:35:00.823Z,17.59
2022-10-31T01:45:08.476Z,17.56
2022-10-31T01:55:13.842Z,17.55
2022-10-31T02:05:21.306Z,17.55
2022-10-31T02:15:27.310Z,17.55
2022-10-31T02:25:34.608Z,17.54
2022-10-31T02:35:41.418Z,17.54
2022-10-31T02:45:49.267Z,17.50
2022-10-31T02:55:54.901Z,17.41
2022-10-31T03:06:01.774Z,17.41
2022-10-31T03:16:07.145Z,17.41
2022-10-31T03:26:15.137Z,17.38
2022-10-31T03:36:20.922Z,17.38
2022-10-31T03:46:28.739Z,17.36
2022-10-31T03:56:34.501Z,17.40
2022-10-31T04:06:42.493Z,17.36
2022-10-31T04:16:48.274Z,17.36
2022-10-31T04:26:56.071Z,17.36
2022-10-31T04:37:01.944Z,17.36
2022-10-31T04:47:09.650Z,17.36
2022-10-31T04:57:15.460Z,17.25
2022-10-31T05:07:23.286Z,17.17
2022-10-31T05:17:28.777Z,17.17
2022-10-31T05:27:36.696Z,17.20
2022-10-31T05:37:42.479Z,17.17
2022-10-31T05:47:50.053Z,17.16
2022-10-31T05:57:55.855Z,17.20
2022-10-31T06:08:04.411Z,17.20
2022-10-31T06:18:10.673Z,17.17
2022-10-31T06:28:18.846Z,17.17
2022-10-31T06:38:25.317Z,17.20
2022-10-31T06:48:32.904Z,17.20
2022-10-31T06:58:38.986Z,17.16
2022-10-31T07:08:45.808Z,17.16
2022-10-31T07:18:50.577Z,16.45
2022-10-31T07:28:57.206Z,16.45
2022-10-31T07:39:03.481Z,16.23
2022-10-31T07:49:10.205Z,18.18
2022-10-31T07:59:16.057Z,18.18
2022-10-31T08:09:25.609Z,18.63
2022-10-31T08:19:32.345Z,19.04
2022-10-31T08:29:38.610Z,19.17
2022-10-31T08:39:44.849Z,19.36
2022-10-31T08:49:50.863Z,19.36
2022-10-31T08:59:57.671Z,19.67
2022-10-31T09:10:03.519Z,19.67
2022-10-31T09:20:10.268Z,19.89
2022-10-31T09:30:16.654Z,20.00
2022-10-31T09:40:22.932Z,20.00
2022-10-31T09:50:28.941Z,20.07
2022-10-31T10:00:35.151Z,20.13
2022-10-31T10:10:41.178Z,20.21
2022-10-31T10:20:47.138Z,20.30
2022-10-31T10:30:53.450Z,20.36
2022-10-31T10:41:00.041Z,20.53
2022-10-31T10:51:05.897Z,20.53
2022-10-31T11:01:12.305Z,20.64
2022-10-31T11:11:18.768Z,20.70
2022-10-31T11:21:25.177Z,20.70
2022-10-31T11:31:30.660Z,20.73
2022-10-31T11:41:36.652Z,20.80
2022-10-31T11:51:42.167Z,20.84
2022-10-31T12:01:48.704Z,20.90
2022-10-31T12:11:54.896Z,20.90
2022-10-31T12:22:00.740Z,20.71
2022-10-31T12:32:06.894Z,20.71
2022-10-31T12:42:13.368Z,20.59
2022-10-31T12:52:19.615Z,20.59
2022-10-31T13:02:26.853Z,20.54
2022-10-31T13:12:34.819Z,20.49
2022-10-31T13:22:45.053Z,20.46
2022-10-31T13:32:50.599Z,20.45
2022-10-31T13:42:59.616Z,20.48
2022-10-31T13:53:05.488Z,20.48
2022-10-31T14:03:13.496Z,20.52
2022-10-31T14:13:19.180Z,20.54
2022-10-31T14:23:26.961Z,20.57
2022-10-31T14:33:32.885Z,20.57
2022-10-31T14:43:40.710Z,20.57
2022-10-31T14:53:46.451Z,20.58
2022-10-31T15:04:21.902Z,20.62
2022-10-31T15:14:03.163Z,20.62
2022-10-31T15:24:09.137Z,20.66
2022-10-31T15:44:21.128Z,20.73
2022-10-31T15:54:29.092Z,20.73
2022-10-31T16:04:35.256Z,20.71
2022-10-31T16:14:40.994Z,20.67
2022-10-31T16:24:46.795Z,20.71
2022-10-31T16:34:52.531Z,20.71
2022-10-31T16:44:57.997Z,20.72
2022-10-31T16:55:04.277Z,20.75
2022-10-31T17:05:12.050Z,20.75
2022-10-31T17:15:18.537Z,20.77
2022-10-31T17:25:24.655Z,20.81
2022-10-31T17:35:30.241Z,20.82
2022-10-31T17:45:36.154Z,20.78
2022-10-31T17:55:41.394Z,20.78
2022-10-31T18:05:46.988Z,20.78
2022-10-31T18:15:52.709Z,20.72
2022-10-31T18:25:58.116Z,20.72
2022-10-31T18:36:03.654Z,20.70
2022-10-31T18:46:09.180Z,20.70
2022-10-31T18:56:15.062Z,20.64
2022-10-31T19:06:20.782Z,20.64
2022-10-31T19:16:26.562Z,20.68
2022-10-31T19:26:32.202Z,20.75
2022-10-31T19:36:37.878Z,20.75
2022-10-31T19:46:58.687Z,20.73
2022-10-31T19:56:55.572Z,20.73
2022-10-31T20:07:01.136Z,20.75
2022-10-31T20:17:07.142Z,20.73
2022-10-31T20:27:12.830Z,20.73
2022-10-31T20:37:19.108Z,20.68
2022-10-31T20:47:25.978Z,20.64
2022-10-31T20:57:31.844Z,20.64
2022-10-31T21:07:37.554Z,20.62
2022-10-31T21:17:43.223Z,20.62
2022-10-31T21:27:48.515Z,20.59
2022-10-31T21:37:54.313Z,20.59
2022-10-31T21:48:00.252Z,20.58
2022-10-31T21:58:05.901Z,20.58
2022-10-31T22:08:11.553Z,20.55
2022-10-31T22:18:16.927Z,20.54
2022-10-31T22:28:22.470Z,20.53
2022-10-31T22:38:28.343Z,20.53
2022-10-31T22:48:33.808Z,20.53
2022-10-31T22:58:39.663Z,20.52
2022-10-31T23:08:45.023Z,20.52
2022-10-31T23:18:50.775Z,20.49
2022-10-31T23:28:56.519Z,20.48
2022-10-31T23:39:01.896Z,20.48
2022-10-31T23:49:07.575Z,20.46
2022-10-31T23:59:13.239Z,20.46
